Aérodrome :
LOGIN :

S'inscrire | Disclaimer

   EN    FR    IT 

 










Légende :    VFR   VFR Marginal   IFR   IFR Intensif   IFR Très Intensif
Visi : 
Plafond : 
>= 8 km
>= 3000ft
5 à 8 km
1000 à 3000 ft
1500m à 5 km
500 à 1000 ft
800 à 1500m
200 à 500 ft
< 800m
< 200 ft
Symboles :   Orages  Brouillard  Fortes neiges  Fortes précipitations  Vent > 20 kt
SIGMETs :   Divers  Orages  Givrage  Turbulence  Onde Orograph.  Cendres Volcan.







- Altitude de l'aérodrome : 2297 ft


LEGA - Armilla

DERNIER METAR :
  • 280800Z 19002KT 5000 RA OVC014 11/10 Q1012

METARs EXPIRÉS :
  • 280700Z VRB07KT 9000 -RA FEW010 SCT026 BKN070 11/10 Q1011
  • 280600Z 20005KT 9000 BKN028 BKN080 BKN150 11/09 Q1011
  • 280500Z 14004KT 6000 SCT013 BKN040 BKN055 11/10 Q1010

TAF TAF LEGA
Valide du 28 à 06h jusqu'au 28 à 15h UTC


280500Z 2806/2815 17010KT 9999 FEW020 BKN035
PROB40
TEMPO 2806/2815 4000 SHRA FEW030CB
PROB40
TEMPO 2812/2815 17015G28KT
Pas de NOTAMs connus pour ce terrain.



MET'MAP, la Météo Aéronautique d'un coup d'oeil ! - Copyright ORBIFLY Décembre 2007 - Disclaimer

ORBIFLY MET'MAP TEAM :

Programmation & Développement : Alexandra Zaïnal
Conception & Développement : Baudouin d'Aumeries
Co-Programmation & Développement : Marc-Olivier Méhu
Soutien technique & logistique : Manuel Goepfert

Contact : metmap@orbifly.com




SOURCES & CREDITS :

   NOAA